Alanreed, TX

8:04 PM CDT on September 02, 2015 (GMT -0500)
Perry Lefors | | Change Station
CLOSE
Current Station
Airport
Location: Pampa,
Elevation: 3245 ft
Nearby Weather Stations

Elev 3245 ft 35.61 °N, 101.00 °W | Updated 9 minutes ago

Clear
Clear
86 °F
Feels Like 84 °F
N
14
Wind Variable Wind from South

Today
High -- | Low -- °F
--% Chance of Precip.
Yesterday
High -- | Low -- °F
Precip. -- in
7:15 AM 8:08 PM
Waning Gibbous, 75% visible
Pressure 29.97 in
Visibility 10.0 miles
Clouds Clear
Heat Index 84 °F
Dew Point 55 °F
Humidity 35%
Rainfall 0.00 in
Snow Depth Not available.
UV 0 out of 12
Pollen 10.30 out of 12
Air Quality Not available.
Flu Activity Not available.
METAR KPPA 030055Z AUTO 17012KT 10SM CLR 30/13 A2997 RMK AO2 T03000128
Pressure 29.97 in
Visibility 10.0 miles
Clouds Clear
Heat Index 84 °F
Dew Point 55 °F
Humidity 35%
Rainfall 0.00 in
Snow Depth Not available.
UV 0 out of 12
Pollen 10.30 out of 12
Air Quality Not available.
Flu Activity Not available.
METAR KPPA 030055Z AUTO 17012KT 10SM CLR 30/13 A2997 RMK AO2 T03000128

10-Day Weather Forecast

×

Almanac

Astronomy

Sep. 02, 2015 Rise Set
Actual Time
Civil Twilight
Nautical Twilight
Astronomical Twilight
Moon
Length of Visible Light
Length of Day
Tomorrow will be .
, % of the Moon is Illuminated

Today's Extremes

State Highs State Lows

Community

WunderPhotos

Upload Photos

1,851,860 photos uploaded!

WunderBlogs® & News

Nearby

Air Quality

  Air Quality AQ Index Pollutant
Not available.

Snow Depth

Station Depth Elevation

Earthquake Activity

City Distance Mag. Time & Date
Minimum magnitude displayed is 2.5.

Coastal Water Temperatures

Place Temperature

Stations

Nearby Weather Stations

Station Location Temp. Windchill Dew Point Humidity Wind Precip. Elev Updated Type